sensor_id;sensor_type;location;lat;lon;timestamp;P1;durP1;ratioP1;P2;durP2;ratioP2
61938;SDS011;47897;50.322;18.892;2023-03-01T00:02:15;227.00;;;87.30;;
61938;SDS011;47897;50.322;18.892;2023-03-01T00:04:41;212.80;;;82.60;;
61938;SDS011;47897;50.322;18.892;2023-03-01T00:07:08;216.20;;;81.90;;
61938;SDS011;47897;50.322;18.892;2023-03-01T00:09:42;208.40;;;80.50;;
61938;SDS011;47897;50.322;18.892;2023-03-01T00:12:10;214.10;;;79.90;;
61938;SDS011;47897;50.322;18.892;2023-03-01T00:14:37;213.50;;;78.70;;
61938;SDS011;47897;50.322;18.892;2023-03-01T00:17:04;185.70;;;77.20;;
61938;SDS011;47897;50.322;18.892;2023-03-01T00:19:30;177.30;;;70.10;;
61938;SDS011;47897;50.322;18.892;2023-03-01T00:21:58;195.80;;;72.60;;
61938;SDS011;47897;50.322;18.892;2023-03-01T00:24:25;210.50;;;78.70;;
61938;SDS011;47897;50.322;18.892;2023-03-01T00:26:55;207.20;;;82.60;;
61938;SDS011;47897;50.322;18.892;2023-03-01T00:29:23;200.80;;;79.70;;
61938;SDS011;47897;50.322;18.892;2023-03-01T00:31:50;193.00;;;78.20;;
61938;SDS011;47897;50.322;18.892;2023-03-01T00:34:16;193.30;;;74.40;;
61938;SDS011;47897;50.322;18.892;2023-03-01T00:36:43;187.20;;;75.70;;
61938;SDS011;47897;50.322;18.892;2023-03-01T00:39:11;183.00;;;72.40;;
61938;SDS011;47897;50.322;18.892;2023-03-01T00:41:38;169.20;;;70.00;;
61938;SDS011;47897;50.322;18.892;2023-03-01T00:44:06;173.00;;;68.50;;
61938;SDS011;47897;50.322;18.892;2023-03-01T00:46:33;168.90;;;67.00;;
61938;SDS011;47897;50.322;18.892;2023-03-01T00:49:00;171.00;;;67.30;;
61938;SDS011;47897;50.322;18.892;2023-03-01T00:51:28;157.70;;;64.80;;
61938;SDS011;47897;50.322;18.892;2023-03-01T00:53:57;160.20;;;64.00;;
61938;SDS011;47897;50.322;18.892;2023-03-01T00:56:24;160.90;;;65.10;;
61938;SDS011;47897;50.322;18.892;2023-03-01T00:58:51;162.40;;;62.60;;
61938;SDS011;47897;50.322;18.892;2023-03-01T01:01:20;149.00;;;60.00;;
61938;SDS011;47897;50.322;18.892;2023-03-01T01:03:49;167.40;;;62.40;;
61938;SDS011;47897;50.322;18.892;2023-03-01T01:06:17;151.50;;;62.70;;
61938;SDS011;47897;50.322;18.892;2023-03-01T01:08:44;167.60;;;64.40;;
61938;SDS011;47897;50.322;18.892;2023-03-01T01:11:11;154.40;;;62.80;;
61938;SDS011;47897;50.322;18.892;2023-03-01T01:13:38;153.80;;;60.80;;
61938;SDS011;47897;50.322;18.892;2023-03-01T01:16:05;142.90;;;57.80;;
61938;SDS011;47897;50.322;18.892;2023-03-01T01:18:32;147.70;;;59.30;;
61938;SDS011;47897;50.322;18.892;2023-03-01T01:21:03;143.60;;;55.50;;
61938;SDS011;47897;50.322;18.892;2023-03-01T01:23:30;143.50;;;58.00;;
61938;SDS011;47897;50.322;18.892;2023-03-01T01:25:57;140.80;;;55.80;;
61938;SDS011;47897;50.322;18.892;2023-03-01T01:28:29;144.50;;;60.20;;
61938;SDS011;47897;50.322;18.892;2023-03-01T01:30:56;139.90;;;59.80;;
61938;SDS011;47897;50.322;18.892;2023-03-01T01:33:23;146.00;;;59.30;;
61938;SDS011;47897;50.322;18.892;2023-03-01T01:35:49;152.30;;;58.70;;
61938;SDS011;47897;50.322;18.892;2023-03-01T01:38:16;143.20;;;58.20;;
61938;SDS011;47897;50.322;18.892;2023-03-01T01:40:45;153.80;;;58.60;;
61938;SDS011;47897;50.322;18.892;2023-03-01T01:43:22;155.10;;;60.60;;
61938;SDS011;47897;50.322;18.892;2023-03-01T01:45:50;147.00;;;60.50;;
61938;SDS011;47897;50.322;18.892;2023-03-01T01:48:19;138.90;;;60.70;;
61938;SDS011;47897;50.322;18.892;2023-03-01T01:50:49;151.50;;;60.80;;
61938;SDS011;47897;50.322;18.892;2023-03-01T01:53:17;164.40;;;64.30;;
61938;SDS011;47897;50.322;18.892;2023-03-01T01:55:45;160.40;;;66.20;;
61938;SDS011;47897;50.322;18.892;2023-03-01T01:58:14;156.30;;;69.50;;
61938;SDS011;47897;50.322;18.892;2023-03-01T02:00:41;151.10;;;62.90;;
61938;SDS011;47897;50.322;18.892;2023-03-01T02:03:11;142.00;;;61.60;;
61938;SDS011;47897;50.322;18.892;2023-03-01T02:08:12;143.50;;;61.20;;
61938;SDS011;47897;50.322;18.892;2023-03-01T02:10:40;149.20;;;60.80;;
61938;SDS011;47897;50.322;18.892;2023-03-01T02:13:07;150.20;;;60.80;;
61938;SDS011;47897;50.322;18.892;2023-03-01T02:15:34;143.20;;;59.10;;
61938;SDS011;47897;50.322;18.892;2023-03-01T02:18:02;130.00;;;56.70;;
61938;SDS011;47897;50.322;18.892;2023-03-01T02:20:34;133.10;;;55.50;;
61938;SDS011;47897;50.322;18.892;2023-03-01T02:23:01;139.20;;;55.80;;
61938;SDS011;47897;50.322;18.892;2023-03-01T02:30:40;129.50;;;53.80;;
61938;SDS011;47897;50.322;18.892;2023-03-01T02:33:27;130.40;;;54.00;;
61938;SDS011;47897;50.322;18.892;2023-03-01T02:35:54;128.60;;;53.60;;
61938;SDS011;47897;50.322;18.892;2023-03-01T02:38:22;122.10;;;53.20;;
61938;SDS011;47897;50.322;18.892;2023-03-01T02:40:50;122.60;;;52.90;;
61938;SDS011;47897;50.322;18.892;2023-03-01T02:43:18;129.00;;;53.60;;
61938;SDS011;47897;50.322;18.892;2023-03-01T02:45:49;133.80;;;55.40;;
61938;SDS011;47897;50.322;18.892;2023-03-01T02:48:17;125.20;;;52.90;;
61938;SDS011;47897;50.322;18.892;2023-03-01T02:51:04;126.10;;;54.70;;
61938;SDS011;47897;50.322;18.892;2023-03-01T02:56:16;130.00;;;55.90;;
61938;SDS011;47897;50.322;18.892;2023-03-01T02:58:43;126.30;;;56.20;;
61938;SDS011;47897;50.322;18.892;2023-03-01T03:01:18;118.50;;;53.40;;
61938;SDS011;47897;50.322;18.892;2023-03-01T03:03:45;116.70;;;52.20;;
61938;SDS011;47897;50.322;18.892;2023-03-01T03:06:12;117.40;;;49.20;;
61938;SDS011;47897;50.322;18.892;2023-03-01T03:08:38;118.00;;;51.80;;
61938;SDS011;47897;50.322;18.892;2023-03-01T03:11:05;118.10;;;50.90;;
61938;SDS011;47897;50.322;18.892;2023-03-01T03:13:32;125.40;;;54.40;;
61938;SDS011;47897;50.322;18.892;2023-03-01T03:15:58;117.20;;;51.40;;
61938;SDS011;47897;50.322;18.892;2023-03-01T03:18:25;114.20;;;49.20;;
61938;SDS011;47897;50.322;18.892;2023-03-01T03:20:52;122.80;;;50.50;;
61938;SDS011;47897;50.322;18.892;2023-03-01T03:23:20;114.90;;;50.30;;
61938;SDS011;47897;50.322;18.892;2023-03-01T03:25:48;115.50;;;50.40;;
61938;SDS011;47897;50.322;18.892;2023-03-01T03:28:15;119.50;;;50.80;;
61938;SDS011;47897;50.322;18.892;2023-03-01T03:30:42;115.60;;;49.20;;
61938;SDS011;47897;50.322;18.892;2023-03-01T03:33:09;112.40;;;49.30;;
61938;SDS011;47897;50.322;18.892;2023-03-01T03:35:43;110.50;;;48.70;;
61938;SDS011;47897;50.322;18.892;2023-03-01T03:38:11;117.80;;;48.90;;
61938;SDS011;47897;50.322;18.892;2023-03-01T03:41:04;127.10;;;51.70;;
61938;SDS011;47897;50.322;18.892;2023-03-01T03:43:29;116.90;;;50.00;;
61938;SDS011;47897;50.322;18.892;2023-03-01T03:45:56;110.80;;;48.50;;
61938;SDS011;47897;50.322;18.892;2023-03-01T03:48:23;105.10;;;44.60;;
61938;SDS011;47897;50.322;18.892;2023-03-01T03:50:54;106.00;;;48.30;;
61938;SDS011;47897;50.322;18.892;2023-03-01T03:53:22;114.80;;;49.10;;
61938;SDS011;47897;50.322;18.892;2023-03-01T03:55:49;119.00;;;51.60;;
61938;SDS011;47897;50.322;18.892;2023-03-01T03:58:19;112.20;;;48.60;;
61938;SDS011;47897;50.322;18.892;2023-03-01T04:00:46;111.70;;;49.40;;
61938;SDS011;47897;50.322;18.892;2023-03-01T04:03:14;123.20;;;52.50;;
61938;SDS011;47897;50.322;18.892;2023-03-01T04:05:42;113.80;;;52.20;;
61938;SDS011;47897;50.322;18.892;2023-03-01T04:08:08;122.80;;;54.90;;
61938;SDS011;47897;50.322;18.892;2023-03-01T04:10:37;117.10;;;52.70;;
61938;SDS011;47897;50.322;18.892;2023-03-01T04:13:04;126.40;;;52.90;;
61938;SDS011;47897;50.322;18.892;2023-03-01T04:15:32;124.00;;;51.80;;
61938;SDS011;47897;50.322;18.892;2023-03-01T04:17:59;133.50;;;52.70;;
61938;SDS011;47897;50.322;18.892;2023-03-01T04:20:27;119.90;;;53.30;;
61938;SDS011;47897;50.322;18.892;2023-03-01T04:25:24;117.00;;;55.20;;
61938;SDS011;47897;50.322;18.892;2023-03-01T04:27:50;119.30;;;54.50;;
61938;SDS011;47897;50.322;18.892;2023-03-01T04:30:17;122.60;;;53.50;;
61938;SDS011;47897;50.322;18.892;2023-03-01T04:32:44;132.70;;;54.10;;
61938;SDS011;47897;50.322;18.892;2023-03-01T04:35:10;116.80;;;52.50;;
61938;SDS011;47897;50.322;18.892;2023-03-01T04:37:37;123.80;;;52.70;;
61938;SDS011;47897;50.322;18.892;2023-03-01T04:40:04;123.30;;;52.30;;
61938;SDS011;47897;50.322;18.892;2023-03-01T04:42:39;114.50;;;52.50;;
61938;SDS011;47897;50.322;18.892;2023-03-01T04:45:06;124.40;;;51.80;;
61938;SDS011;47897;50.322;18.892;2023-03-01T04:47:40;120.50;;;51.20;;
61938;SDS011;47897;50.322;18.892;2023-03-01T04:50:07;131.50;;;51.70;;
61938;SDS011;47897;50.322;18.892;2023-03-01T04:52:34;132.90;;;51.50;;
61938;SDS011;47897;50.322;18.892;2023-03-01T04:55:01;123.90;;;50.70;;
61938;SDS011;47897;50.322;18.892;2023-03-01T04:57:30;115.40;;;50.80;;
61938;SDS011;47897;50.322;18.892;2023-03-01T04:59:57;120.50;;;49.80;;
61938;SDS011;47897;50.322;18.892;2023-03-01T05:02:24;118.30;;;50.80;;
61938;SDS011;47897;50.322;18.892;2023-03-01T05:04:51;118.30;;;49.90;;
61938;SDS011;47897;50.322;18.892;2023-03-01T05:07:18;111.10;;;47.60;;
61938;SDS011;47897;50.322;18.892;2023-03-01T05:09:46;98.00;;;44.70;;
61938;SDS011;47897;50.322;18.892;2023-03-01T05:12:12;113.60;;;48.70;;
61938;SDS011;47897;50.322;18.892;2023-03-01T05:14:39;108.30;;;47.20;;
61938;SDS011;47897;50.322;18.892;2023-03-01T05:17:06;100.70;;;45.30;;
61938;SDS011;47897;50.322;18.892;2023-03-01T05:19:33;106.30;;;48.00;;
61938;SDS011;47897;50.322;18.892;2023-03-01T05:22:00;108.80;;;46.40;;
61938;SDS011;47897;50.322;18.892;2023-03-01T05:24:34;97.50;;;44.50;;
61938;SDS011;47897;50.322;18.892;2023-03-01T05:27:01;108.00;;;46.90;;
61938;SDS011;47897;50.322;18.892;2023-03-01T05:29:30;112.40;;;50.40;;
61938;SDS011;47897;50.322;18.892;2023-03-01T05:31:58;113.50;;;48.90;;
61938;SDS011;47897;50.322;18.892;2023-03-01T05:34:25;110.40;;;48.40;;
61938;SDS011;47897;50.322;18.892;2023-03-01T05:36:52;131.30;;;51.10;;
61938;SDS011;47897;50.322;18.892;2023-03-01T05:39:20;118.40;;;50.90;;
61938;SDS011;47897;50.322;18.892;2023-03-01T05:41:48;119.80;;;48.10;;
61938;SDS011;47897;50.322;18.892;2023-03-01T05:44:18;108.40;;;47.30;;
61938;SDS011;47897;50.322;18.892;2023-03-01T05:46:44;101.00;;;45.30;;
61938;SDS011;47897;50.322;18.892;2023-03-01T05:49:11;99.10;;;47.50;;
61938;SDS011;47897;50.322;18.892;2023-03-01T05:51:40;96.20;;;45.50;;
61938;SDS011;47897;50.322;18.892;2023-03-01T05:54:08;112.70;;;50.30;;
61938;SDS011;47897;50.322;18.892;2023-03-01T05:56:35;97.70;;;46.00;;
61938;SDS011;47897;50.322;18.892;2023-03-01T05:59:02;109.80;;;47.30;;
61938;SDS011;47897;50.322;18.892;2023-03-01T06:01:29;106.70;;;47.00;;
61938;SDS011;47897;50.322;18.892;2023-03-01T06:03:56;109.60;;;49.20;;
61938;SDS011;47897;50.322;18.892;2023-03-01T06:06:23;111.50;;;51.70;;
61938;SDS011;47897;50.322;18.892;2023-03-01T06:08:50;107.40;;;48.60;;
61938;SDS011;47897;50.322;18.892;2023-03-01T06:11:18;113.40;;;49.70;;
61938;SDS011;47897;50.322;18.892;2023-03-01T06:13:45;113.10;;;53.50;;
61938;SDS011;47897;50.322;18.892;2023-03-01T06:16:12;122.90;;;54.00;;
61938;SDS011;47897;50.322;18.892;2023-03-01T06:18:39;116.70;;;50.70;;
61938;SDS011;47897;50.322;18.892;2023-03-01T06:21:07;120.50;;;54.50;;
61938;SDS011;47897;50.322;18.892;2023-03-01T06:23:34;112.80;;;53.70;;
61938;SDS011;47897;50.322;18.892;2023-03-01T06:26:04;117.60;;;54.40;;
61938;SDS011;47897;50.322;18.892;2023-03-01T06:28:31;109.50;;;50.50;;
61938;SDS011;47897;50.322;18.892;2023-03-01T06:30:58;111.50;;;51.90;;
61938;SDS011;47897;50.322;18.892;2023-03-01T06:33:24;117.50;;;50.20;;
61938;SDS011;47897;50.322;18.892;2023-03-01T06:35:51;117.80;;;52.90;;
61938;SDS011;47897;50.322;18.892;2023-03-01T06:38:20;158.90;;;71.40;;
61938;SDS011;47897;50.322;18.892;2023-03-01T06:40:51;165.60;;;76.40;;
61938;SDS011;47897;50.322;18.892;2023-03-01T06:43:18;152.20;;;70.40;;
61938;SDS011;47897;50.322;18.892;2023-03-01T06:45:44;177.80;;;84.40;;
61938;SDS011;47897;50.322;18.892;2023-03-01T06:48:12;155.90;;;73.60;;
61938;SDS011;47897;50.322;18.892;2023-03-01T06:50:38;148.70;;;68.30;;
61938;SDS011;47897;50.322;18.892;2023-03-01T06:53:05;122.90;;;58.80;;
61938;SDS011;47897;50.322;18.892;2023-03-01T06:55:32;139.90;;;64.70;;
61938;SDS011;47897;50.322;18.892;2023-03-01T06:57:59;110.20;;;53.00;;
61938;SDS011;47897;50.322;18.892;2023-03-01T07:00:26;123.90;;;54.40;;
61938;SDS011;47897;50.322;18.892;2023-03-01T07:02:53;178.10;;;69.30;;
61938;SDS011;47897;50.322;18.892;2023-03-01T07:05:20;153.50;;;65.00;;
61938;SDS011;47897;50.322;18.892;2023-03-01T07:07:47;138.30;;;63.60;;
61938;SDS011;47897;50.322;18.892;2023-03-01T07:10:13;134.20;;;62.60;;
61938;SDS011;47897;50.322;18.892;2023-03-01T07:12:40;126.00;;;57.40;;
61938;SDS011;47897;50.322;18.892;2023-03-01T07:15:08;122.50;;;59.60;;
61938;SDS011;47897;50.322;18.892;2023-03-01T07:17:35;128.80;;;57.80;;
61938;SDS011;47897;50.322;18.892;2023-03-01T07:20:02;130.20;;;58.40;;
61938;SDS011;47897;50.322;18.892;2023-03-01T07:22:29;130.10;;;62.00;;
61938;SDS011;47897;50.322;18.892;2023-03-01T07:24:56;120.60;;;57.70;;
61938;SDS011;47897;50.322;18.892;2023-03-01T07:27:22;121.90;;;57.00;;
61938;SDS011;47897;50.322;18.892;2023-03-01T07:29:49;123.70;;;61.30;;
61938;SDS011;47897;50.322;18.892;2023-03-01T07:32:15;127.30;;;57.60;;
61938;SDS011;47897;50.322;18.892;2023-03-01T07:34:42;122.40;;;55.90;;
61938;SDS011;47897;50.322;18.892;2023-03-01T07:37:09;128.80;;;58.70;;
61938;SDS011;47897;50.322;18.892;2023-03-01T07:39:35;121.50;;;56.90;;
61938;SDS011;47897;50.322;18.892;2023-03-01T07:42:02;125.00;;;55.10;;
61938;SDS011;47897;50.322;18.892;2023-03-01T07:44:29;139.30;;;61.50;;
61938;SDS011;47897;50.322;18.892;2023-03-01T07:46:55;137.20;;;60.20;;
61938;SDS011;47897;50.322;18.892;2023-03-01T07:49:24;153.00;;;67.20;;
61938;SDS011;47897;50.322;18.892;2023-03-01T07:51:52;137.30;;;58.50;;
61938;SDS011;47897;50.322;18.892;2023-03-01T07:54:19;127.90;;;56.90;;
61938;SDS011;47897;50.322;18.892;2023-03-01T07:56:46;120.90;;;55.40;;
61938;SDS011;47897;50.322;18.892;2023-03-01T07:59:12;123.40;;;58.00;;
61938;SDS011;47897;50.322;18.892;2023-03-01T08:01:39;123.50;;;57.20;;
61938;SDS011;47897;50.322;18.892;2023-03-01T08:04:07;129.30;;;59.40;;
61938;SDS011;47897;50.322;18.892;2023-03-01T08:06:34;133.10;;;60.10;;
61938;SDS011;47897;50.322;18.892;2023-03-01T08:09:01;115.30;;;50.70;;
61938;SDS011;47897;50.322;18.892;2023-03-01T08:11:27;131.10;;;59.80;;
61938;SDS011;47897;50.322;18.892;2023-03-01T08:13:57;114.80;;;54.70;;
61938;SDS011;47897;50.322;18.892;2023-03-01T08:16:23;128.10;;;58.70;;
61938;SDS011;47897;50.322;18.892;2023-03-01T08:18:50;117.90;;;56.50;;
61938;SDS011;47897;50.322;18.892;2023-03-01T08:21:17;110.40;;;51.80;;
61938;SDS011;47897;50.322;18.892;2023-03-01T08:23:44;116.30;;;52.60;;
61938;SDS011;47897;50.322;18.892;2023-03-01T08:26:18;105.20;;;50.10;;
61938;SDS011;47897;50.322;18.892;2023-03-01T08:28:45;65.70;;;31.00;;
61938;SDS011;47897;50.322;18.892;2023-03-01T08:31:25;92.00;;;45.00;;
61938;SDS011;47897;50.322;18.892;2023-03-01T08:33:54;87.10;;;42.90;;
61938;SDS011;47897;50.322;18.892;2023-03-01T08:36:27;81.10;;;39.00;;
61938;SDS011;47897;50.322;18.892;2023-03-01T08:38:54;64.80;;;35.10;;
61938;SDS011;47897;50.322;18.892;2023-03-01T08:41:21;71.00;;;34.00;;
61938;SDS011;47897;50.322;18.892;2023-03-01T08:43:48;53.00;;;28.40;;
61938;SDS011;47897;50.322;18.892;2023-03-01T08:46:15;44.90;;;25.10;;
61938;SDS011;47897;50.322;18.892;2023-03-01T08:48:42;52.30;;;26.10;;
61938;SDS011;47897;50.322;18.892;2023-03-01T08:51:10;58.40;;;27.60;;
61938;SDS011;47897;50.322;18.892;2023-03-01T08:53:37;39.00;;;18.80;;
61938;SDS011;47897;50.322;18.892;2023-03-01T08:56:04;59.20;;;28.50;;
61938;SDS011;47897;50.322;18.892;2023-03-01T08:58:31;51.50;;;27.20;;
61938;SDS011;47897;50.322;18.892;2023-03-01T09:00:58;50.40;;;26.60;;
61938;SDS011;47897;50.322;18.892;2023-03-01T09:03:25;54.20;;;27.30;;
61938;SDS011;47897;50.322;18.892;2023-03-01T09:05:52;59.70;;;30.50;;
61938;SDS011;47897;50.322;18.892;2023-03-01T09:08:19;55.70;;;27.50;;
61938;SDS011;47897;50.322;18.892;2023-03-01T09:10:46;53.00;;;26.90;;
61938;SDS011;47897;50.322;18.892;2023-03-01T09:13:13;50.10;;;26.30;;
61938;SDS011;47897;50.322;18.892;2023-03-01T09:15:39;49.60;;;26.90;;
61938;SDS011;47897;50.322;18.892;2023-03-01T09:18:06;44.90;;;22.50;;
61938;SDS011;47897;50.322;18.892;2023-03-01T09:20:33;48.40;;;24.50;;
61938;SDS011;47897;50.322;18.892;2023-03-01T09:22:59;59.30;;;27.90;;
61938;SDS011;47897;50.322;18.892;2023-03-01T09:25:26;49.50;;;26.40;;
61938;SDS011;47897;50.322;18.892;2023-03-01T09:27:53;54.00;;;26.10;;
61938;SDS011;47897;50.322;18.892;2023-03-01T09:30:22;44.60;;;24.30;;
61938;SDS011;47897;50.322;18.892;2023-03-01T09:32:49;52.20;;;24.90;;
61938;SDS011;47897;50.322;18.892;2023-03-01T09:35:15;49.50;;;25.20;;
61938;SDS011;47897;50.322;18.892;2023-03-01T09:37:42;44.20;;;23.70;;
61938;SDS011;47897;50.322;18.892;2023-03-01T09:40:12;50.70;;;25.10;;
61938;SDS011;47897;50.322;18.892;2023-03-01T09:42:50;47.30;;;23.90;;
61938;SDS011;47897;50.322;18.892;2023-03-01T09:45:24;49.20;;;22.30;;
61938;SDS011;47897;50.322;18.892;2023-03-01T09:47:52;45.50;;;24.60;;
61938;SDS011;47897;50.322;18.892;2023-03-01T09:50:19;46.80;;;24.30;;
61938;SDS011;47897;50.322;18.892;2023-03-01T09:55:14;49.80;;;25.30;;
61938;SDS011;47897;50.322;18.892;2023-03-01T09:57:50;47.60;;;23.20;;
61938;SDS011;47897;50.322;18.892;2023-03-01T10:03:03;45.60;;;22.40;;
61938;SDS011;47897;50.322;18.892;2023-03-01T10:08:14;21.50;;;10.00;;
61938;SDS011;47897;50.322;18.892;2023-03-01T10:10:46;43.40;;;23.50;;
61938;SDS011;47897;50.322;18.892;2023-03-01T10:13:18;47.50;;;22.90;;
61938;SDS011;47897;50.322;18.892;2023-03-01T10:15:56;48.60;;;23.90;;
61938;SDS011;47897;50.322;18.892;2023-03-01T10:18:25;43.20;;;22.50;;
61938;SDS011;47897;50.322;18.892;2023-03-01T10:23:20;56.00;;;24.20;;
61938;SDS011;47897;50.322;18.892;2023-03-01T10:29:07;47.50;;;25.10;;
61938;SDS011;47897;50.322;18.892;2023-03-01T10:31:26;58.60;;;28.60;;
61938;SDS011;47897;50.322;18.892;2023-03-01T10:33:55;47.40;;;24.60;;
61938;SDS011;47897;50.322;18.892;2023-03-01T10:36:23;40.70;;;22.10;;
61938;SDS011;47897;50.322;18.892;2023-03-01T10:38:51;38.40;;;20.70;;
61938;SDS011;47897;50.322;18.892;2023-03-01T10:41:23;44.20;;;21.80;;
61938;SDS011;47897;50.322;18.892;2023-03-01T10:43:51;15.50;;;9.40;;
61938;SDS011;47897;50.322;18.892;2023-03-01T10:46:35;40.10;;;21.00;;
61938;SDS011;47897;50.322;18.892;2023-03-01T10:51:45;41.20;;;21.70;;
61938;SDS011;47897;50.322;18.892;2023-03-01T10:56:46;38.40;;;18.60;;
61938;SDS011;47897;50.322;18.892;2023-03-01T10:59:21;31.30;;;16.70;;
61938;SDS011;47897;50.322;18.892;2023-03-01T11:02:01;41.30;;;21.60;;
61938;SDS011;47897;50.322;18.892;2023-03-01T11:04:28;51.50;;;24.90;;
61938;SDS011;47897;50.322;18.892;2023-03-01T11:06:58;46.50;;;23.30;;
61938;SDS011;47897;50.322;18.892;2023-03-01T11:09:25;39.60;;;20.30;;
61938;SDS011;47897;50.322;18.892;2023-03-01T11:11:55;49.50;;;28.10;;
61938;SDS011;47897;50.322;18.892;2023-03-01T11:14:23;49.70;;;24.20;;
61938;SDS011;47897;50.322;18.892;2023-03-01T11:19:26;38.70;;;19.90;;
61938;SDS011;47897;50.322;18.892;2023-03-01T11:24:58;43.60;;;21.50;;
61938;SDS011;47897;50.322;18.892;2023-03-01T11:27:26;38.30;;;20.20;;
61938;SDS011;47897;50.322;18.892;2023-03-01T11:30:01;35.70;;;20.80;;
61938;SDS011;47897;50.322;18.892;2023-03-01T11:32:33;31.80;;;17.90;;
61938;SDS011;47897;50.322;18.892;2023-03-01T11:35:05;35.80;;;19.30;;
61938;SDS011;47897;50.322;18.892;2023-03-01T11:40:10;30.70;;;17.00;;
61938;SDS011;47897;50.322;18.892;2023-03-01T11:45:14;29.50;;;15.00;;
61938;SDS011;47897;50.322;18.892;2023-03-01T11:47:51;28.20;;;15.20;;
61938;SDS011;47897;50.322;18.892;2023-03-01T11:50:25;35.80;;;18.50;;
61938;SDS011;47897;50.322;18.892;2023-03-01T11:53:01;31.80;;;17.10;;
61938;SDS011;47897;50.322;18.892;2023-03-01T11:55:36;32.40;;;18.00;;
61938;SDS011;47897;50.322;18.892;2023-03-01T12:05:40;39.40;;;19.70;;
61938;SDS011;47897;50.322;18.892;2023-03-01T12:10:49;41.60;;;19.20;;
61938;SDS011;47897;50.322;18.892;2023-03-01T12:15:54;37.70;;;18.40;;
61938;SDS011;47897;50.322;18.892;2023-03-01T12:23:48;58.20;;;26.80;;
61938;SDS011;47897;50.322;18.892;2023-03-01T12:28:52;224.40;;;83.10;;
61938;SDS011;47897;50.322;18.892;2023-03-01T12:31:29;64.90;;;31.60;;
61938;SDS011;47897;50.322;18.892;2023-03-01T12:34:03;37.40;;;18.10;;
61938;SDS011;47897;50.322;18.892;2023-03-01T12:39:32;47.50;;;25.10;;
61938;SDS011;47897;50.322;18.892;2023-03-01T12:52:30;46.90;;;24.50;;
61938;SDS011;47897;50.322;18.892;2023-03-01T12:54:58;34.30;;;18.00;;
61938;SDS011;47897;50.322;18.892;2023-03-01T12:57:29;36.40;;;18.50;;
61938;SDS011;47897;50.322;18.892;2023-03-01T13:00:15;75.00;;;37.20;;
61938;SDS011;47897;50.322;18.892;2023-03-01T13:05:24;66.10;;;27.90;;
61938;SDS011;47897;50.322;18.892;2023-03-01T13:07:55;37.70;;;18.70;;
61938;SDS011;47897;50.322;18.892;2023-03-01T13:10:34;30.50;;;16.50;;
61938;SDS011;47897;50.322;18.892;2023-03-01T13:15:35;64.00;;;25.90;;
61938;SDS011;47897;50.322;18.892;2023-03-01T13:23:11;67.80;;;27.90;;
61938;SDS011;47897;50.322;18.892;2023-03-01T13:30:54;29.70;;;14.80;;
61938;SDS011;47897;50.322;18.892;2023-03-01T13:35:54;90.30;;;36.60;;
61938;SDS011;47897;50.322;18.892;2023-03-01T13:41:07;25.60;;;13.40;;
61938;SDS011;47897;50.322;18.892;2023-03-01T13:43:35;88.30;;;40.50;;
61938;SDS011;47897;50.322;18.892;2023-03-01T13:46:24;27.20;;;16.40;;
61938;SDS011;47897;50.322;18.892;2023-03-01T13:48:50;48.30;;;24.80;;
61938;SDS011;47897;50.322;18.892;2023-03-01T13:51:21;24.80;;;13.20;;
61938;SDS011;47897;50.322;18.892;2023-03-01T13:56:25;31.90;;;18.10;;
61938;SDS011;47897;50.322;18.892;2023-03-01T14:01:25;23.10;;;12.30;;
61938;SDS011;47897;50.322;18.892;2023-03-01T14:03:52;24.10;;;13.60;;
61938;SDS011;47897;50.322;18.892;2023-03-01T14:06:21;29.10;;;14.10;;
61938;SDS011;47897;50.322;18.892;2023-03-01T14:08:49;15.30;;;8.40;;
61938;SDS011;47897;50.322;18.892;2023-03-01T14:21:42;23.50;;;13.20;;
61938;SDS011;47897;50.322;18.892;2023-03-01T14:24:21;24.80;;;11.60;;
61938;SDS011;47897;50.322;18.892;2023-03-01T14:26:49;26.30;;;15.10;;
61938;SDS011;47897;50.322;18.892;2023-03-01T14:32:22;27.20;;;14.10;;
61938;SDS011;47897;50.322;18.892;2023-03-01T14:34:50;31.40;;;15.00;;
61938;SDS011;47897;50.322;18.892;2023-03-01T14:37:22;28.60;;;15.80;;
61938;SDS011;47897;50.322;18.892;2023-03-01T14:39:51;28.00;;;16.30;;
61938;SDS011;47897;50.322;18.892;2023-03-01T14:42:19;30.30;;;14.60;;
61938;SDS011;47897;50.322;18.892;2023-03-01T14:44:47;31.50;;;19.00;;
61938;SDS011;47897;50.322;18.892;2023-03-01T14:47:15;36.50;;;21.40;;
61938;SDS011;47897;50.322;18.892;2023-03-01T14:49:42;28.40;;;17.50;;
61938;SDS011;47897;50.322;18.892;2023-03-01T14:52:20;89.30;;;38.10;;
61938;SDS011;47897;50.322;18.892;2023-03-01T14:54:52;44.30;;;22.10;;
61938;SDS011;47897;50.322;18.892;2023-03-01T14:57:24;81.60;;;34.60;;
61938;SDS011;47897;50.322;18.892;2023-03-01T14:59:52;50.60;;;21.80;;
61938;SDS011;47897;50.322;18.892;2023-03-01T15:02:21;31.00;;;16.40;;
61938;SDS011;47897;50.322;18.892;2023-03-01T15:04:50;28.80;;;14.40;;
61938;SDS011;47897;50.322;18.892;2023-03-01T15:07:18;32.50;;;16.30;;
61938;SDS011;47897;50.322;18.892;2023-03-01T15:09:45;26.90;;;14.90;;
61938;SDS011;47897;50.322;18.892;2023-03-01T15:17:50;20.20;;;12.60;;
61938;SDS011;47897;50.322;18.892;2023-03-01T15:20:18;35.30;;;16.90;;
61938;SDS011;47897;50.322;18.892;2023-03-01T15:22:48;30.20;;;18.80;;
61938;SDS011;47897;50.322;18.892;2023-03-01T15:25:18;64.80;;;39.90;;
61938;SDS011;47897;50.322;18.892;2023-03-01T15:27:45;54.70;;;37.10;;
61938;SDS011;47897;50.322;18.892;2023-03-01T15:30:13;35.80;;;22.40;;
61938;SDS011;47897;50.322;18.892;2023-03-01T15:32:43;37.30;;;21.30;;
61938;SDS011;47897;50.322;18.892;2023-03-01T15:37:59;26.60;;;15.30;;
61938;SDS011;47897;50.322;18.892;2023-03-01T15:40:34;24.70;;;15.00;;
61938;SDS011;47897;50.322;18.892;2023-03-01T15:43:04;28.60;;;16.10;;
61938;SDS011;47897;50.322;18.892;2023-03-01T15:45:33;34.60;;;18.40;;
61938;SDS011;47897;50.322;18.892;2023-03-01T15:48:25;44.20;;;22.50;;
61938;SDS011;47897;50.322;18.892;2023-03-01T15:50:59;35.00;;;20.90;;
61938;SDS011;47897;50.322;18.892;2023-03-01T15:53:28;30.80;;;18.20;;
61938;SDS011;47897;50.322;18.892;2023-03-01T15:55:55;30.50;;;18.70;;
61938;SDS011;47897;50.322;18.892;2023-03-01T15:58:22;31.00;;;16.40;;
61938;SDS011;47897;50.322;18.892;2023-03-01T16:00:50;31.90;;;17.40;;
61938;SDS011;47897;50.322;18.892;2023-03-01T16:03:22;44.40;;;24.00;;
61938;SDS011;47897;50.322;18.892;2023-03-01T16:05:49;40.80;;;22.70;;
61938;SDS011;47897;50.322;18.892;2023-03-01T16:08:16;36.80;;;20.30;;
61938;SDS011;47897;50.322;18.892;2023-03-01T16:10:44;42.90;;;22.70;;
61938;SDS011;47897;50.322;18.892;2023-03-01T16:13:11;57.30;;;27.60;;
61938;SDS011;47897;50.322;18.892;2023-03-01T16:15:38;45.10;;;24.90;;